sensor_id;sensor_type;location;lat;lon;timestamp;P1;durP1;ratioP1;P2;durP2;ratioP2
75289;SDS011;63883;48.996;20.804;2023-08-06T00:00:07;7.00;;;4.47;;
75289;SDS011;63883;48.996;20.804;2023-08-06T00:02:34;6.35;;;4.35;;
75289;SDS011;63883;48.996;20.804;2023-08-06T00:04:59;7.53;;;5.05;;
75289;SDS011;63883;48.996;20.804;2023-08-06T00:07:25;8.18;;;5.13;;
75289;SDS011;63883;48.996;20.804;2023-08-06T00:09:51;7.28;;;4.57;;
75289;SDS011;63883;48.996;20.804;2023-08-06T00:12:16;5.55;;;4.18;;
75289;SDS011;63883;48.996;20.804;2023-08-06T00:14:42;5.72;;;4.00;;
75289;SDS011;63883;48.996;20.804;2023-08-06T00:17:08;4.65;;;3.47;;
75289;SDS011;63883;48.996;20.804;2023-08-06T00:19:33;4.93;;;3.42;;
75289;SDS011;63883;48.996;20.804;2023-08-06T00:21:59;5.63;;;3.78;;
75289;SDS011;63883;48.996;20.804;2023-08-06T00:24:25;4.85;;;3.65;;
75289;SDS011;63883;48.996;20.804;2023-08-06T00:26:51;4.78;;;3.50;;
75289;SDS011;63883;48.996;20.804;2023-08-06T00:29:16;4.72;;;3.70;;
75289;SDS011;63883;48.996;20.804;2023-08-06T00:31:42;7.18;;;3.63;;
75289;SDS011;63883;48.996;20.804;2023-08-06T00:34:07;6.22;;;3.80;;
75289;SDS011;63883;48.996;20.804;2023-08-06T00:36:33;6.35;;;3.80;;
75289;SDS011;63883;48.996;20.804;2023-08-06T00:38:59;5.03;;;3.90;;
75289;SDS011;63883;48.996;20.804;2023-08-06T00:41:24;6.00;;;4.00;;
75289;SDS011;63883;48.996;20.804;2023-08-06T00:43:50;5.78;;;3.67;;
75289;SDS011;63883;48.996;20.804;2023-08-06T00:46:16;6.40;;;4.32;;
75289;SDS011;63883;48.996;20.804;2023-08-06T00:48:42;5.78;;;3.97;;
75289;SDS011;63883;48.996;20.804;2023-08-06T00:51:11;4.90;;;3.75;;
75289;SDS011;63883;48.996;20.804;2023-08-06T00:53:39;5.60;;;3.83;;
75289;SDS011;63883;48.996;20.804;2023-08-06T00:56:06;6.20;;;4.13;;
75289;SDS011;63883;48.996;20.804;2023-08-06T00:58:32;6.53;;;4.20;;
75289;SDS011;63883;48.996;20.804;2023-08-06T01:00:59;5.20;;;3.47;;
75289;SDS011;63883;48.996;20.804;2023-08-06T01:03:25;8.38;;;4.22;;
75289;SDS011;63883;48.996;20.804;2023-08-06T01:05:51;6.20;;;4.03;;
75289;SDS011;63883;48.996;20.804;2023-08-06T01:15:13;7.07;;;4.80;;
75289;SDS011;63883;48.996;20.804;2023-08-06T01:17:22;6.30;;;4.35;;
75289;SDS011;63883;48.996;20.804;2023-08-06T01:19:49;12.85;;;4.93;;
75289;SDS011;63883;48.996;20.804;2023-08-06T01:22:15;9.10;;;4.68;;
75289;SDS011;63883;48.996;20.804;2023-08-06T01:24:40;8.98;;;4.50;;
75289;SDS011;63883;48.996;20.804;2023-08-06T01:27:28;7.15;;;4.35;;
75289;SDS011;63883;48.996;20.804;2023-08-06T01:30:16;6.78;;;4.15;;
75289;SDS011;63883;48.996;20.804;2023-08-06T01:32:46;8.40;;;3.92;;
75289;SDS011;63883;48.996;20.804;2023-08-06T01:35:15;5.53;;;3.85;;
75289;SDS011;63883;48.996;20.804;2023-08-06T01:37:45;7.18;;;4.30;;
75289;SDS011;63883;48.996;20.804;2023-08-06T01:40:12;6.38;;;3.97;;
75289;SDS011;63883;48.996;20.804;2023-08-06T01:42:38;6.38;;;4.43;;
75289;SDS011;63883;48.996;20.804;2023-08-06T01:45:04;6.60;;;4.15;;
75289;SDS011;63883;48.996;20.804;2023-08-06T01:47:32;5.88;;;4.18;;
75289;SDS011;63883;48.996;20.804;2023-08-06T01:49:58;6.70;;;3.78;;
75289;SDS011;63883;48.996;20.804;2023-08-06T01:52:23;7.35;;;4.47;;
75289;SDS011;63883;48.996;20.804;2023-08-06T01:54:49;5.95;;;4.50;;
75289;SDS011;63883;48.996;20.804;2023-08-06T01:57:15;8.63;;;4.90;;
75289;SDS011;63883;48.996;20.804;2023-08-06T01:59:40;9.35;;;4.50;;
75289;SDS011;63883;48.996;20.804;2023-08-06T02:02:06;7.30;;;4.75;;
75289;SDS011;63883;48.996;20.804;2023-08-06T02:04:32;5.82;;;4.50;;
75289;SDS011;63883;48.996;20.804;2023-08-06T02:06:57;7.25;;;4.88;;
75289;SDS011;63883;48.996;20.804;2023-08-06T02:09:23;9.05;;;4.88;;
75289;SDS011;63883;48.996;20.804;2023-08-06T02:11:49;6.65;;;4.65;;
75289;SDS011;63883;48.996;20.804;2023-08-06T02:14:14;8.18;;;4.75;;
75289;SDS011;63883;48.996;20.804;2023-08-06T02:16:40;9.93;;;5.03;;
75289;SDS011;63883;48.996;20.804;2023-08-06T02:19:05;7.50;;;5.10;;
75289;SDS011;63883;48.996;20.804;2023-08-06T02:21:31;8.00;;;5.20;;
75289;SDS011;63883;48.996;20.804;2023-08-06T02:23:57;7.13;;;5.05;;
75289;SDS011;63883;48.996;20.804;2023-08-06T02:26:23;9.18;;;4.78;;
75289;SDS011;63883;48.996;20.804;2023-08-06T02:28:48;7.03;;;4.95;;
75289;SDS011;63883;48.996;20.804;2023-08-06T02:31:14;7.63;;;4.93;;
75289;SDS011;63883;48.996;20.804;2023-08-06T02:33:40;8.13;;;5.03;;
75289;SDS011;63883;48.996;20.804;2023-08-06T02:36:05;8.13;;;4.93;;
75289;SDS011;63883;48.996;20.804;2023-08-06T02:38:31;8.88;;;4.68;;
75289;SDS011;63883;48.996;20.804;2023-08-06T02:40:58;6.75;;;4.50;;
75289;SDS011;63883;48.996;20.804;2023-08-06T02:43:23;6.25;;;4.50;;
75289;SDS011;63883;48.996;20.804;2023-08-06T02:45:49;5.75;;;4.28;;
75289;SDS011;63883;48.996;20.804;2023-08-06T02:48:15;6.20;;;4.50;;
75289;SDS011;63883;48.996;20.804;2023-08-06T02:50:41;5.70;;;4.20;;
75289;SDS011;63883;48.996;20.804;2023-08-06T02:53:07;5.72;;;4.35;;
75289;SDS011;63883;48.996;20.804;2023-08-06T02:55:34;6.13;;;4.13;;
75289;SDS011;63883;48.996;20.804;2023-08-06T02:58:00;5.90;;;4.40;;
75289;SDS011;63883;48.996;20.804;2023-08-06T03:00:27;7.10;;;4.63;;
75289;SDS011;63883;48.996;20.804;2023-08-06T03:02:53;7.28;;;4.28;;
75289;SDS011;63883;48.996;20.804;2023-08-06T03:05:19;5.78;;;4.18;;
75289;SDS011;63883;48.996;20.804;2023-08-06T03:07:44;6.75;;;4.13;;
75289;SDS011;63883;48.996;20.804;2023-08-06T03:10:10;7.10;;;4.35;;
75289;SDS011;63883;48.996;20.804;2023-08-06T03:12:36;8.98;;;4.97;;
75289;SDS011;63883;48.996;20.804;2023-08-06T03:15:02;5.38;;;4.05;;
75289;SDS011;63883;48.996;20.804;2023-08-06T03:17:27;6.47;;;4.43;;
75289;SDS011;63883;48.996;20.804;2023-08-06T03:19:53;5.80;;;3.97;;
75289;SDS011;63883;48.996;20.804;2023-08-06T03:22:19;6.53;;;3.78;;
75289;SDS011;63883;48.996;20.804;2023-08-06T03:24:45;7.65;;;4.70;;
75289;SDS011;63883;48.996;20.804;2023-08-06T03:27:10;7.53;;;4.10;;
75289;SDS011;63883;48.996;20.804;2023-08-06T03:29:36;8.23;;;4.47;;
75289;SDS011;63883;48.996;20.804;2023-08-06T03:32:02;7.50;;;4.40;;
75289;SDS011;63883;48.996;20.804;2023-08-06T03:34:27;7.47;;;4.60;;
75289;SDS011;63883;48.996;20.804;2023-08-06T03:36:53;6.15;;;4.35;;
75289;SDS011;63883;48.996;20.804;2023-08-06T03:39:19;7.03;;;4.15;;
75289;SDS011;63883;48.996;20.804;2023-08-06T03:41:44;7.57;;;4.43;;
75289;SDS011;63883;48.996;20.804;2023-08-06T03:44:10;8.18;;;4.63;;
75289;SDS011;63883;48.996;20.804;2023-08-06T03:46:35;7.32;;;4.30;;
75289;SDS011;63883;48.996;20.804;2023-08-06T03:49:01;13.30;;;5.10;;
75289;SDS011;63883;48.996;20.804;2023-08-06T03:51:27;9.27;;;4.88;;
75289;SDS011;63883;48.996;20.804;2023-08-06T03:53:53;8.85;;;4.60;;
75289;SDS011;63883;48.996;20.804;2023-08-06T03:56:18;7.38;;;4.72;;
75289;SDS011;63883;48.996;20.804;2023-08-06T03:58:44;7.28;;;4.65;;
75289;SDS011;63883;48.996;20.804;2023-08-06T04:01:10;8.07;;;4.95;;
75289;SDS011;63883;48.996;20.804;2023-08-06T04:03:35;7.35;;;5.20;;
75289;SDS011;63883;48.996;20.804;2023-08-06T04:06:04;8.30;;;5.30;;
75289;SDS011;63883;48.996;20.804;2023-08-06T04:08:29;9.10;;;4.75;;
75289;SDS011;63883;48.996;20.804;2023-08-06T04:10:55;11.00;;;5.25;;
75289;SDS011;63883;48.996;20.804;2023-08-06T04:13:21;7.28;;;4.97;;
75289;SDS011;63883;48.996;20.804;2023-08-06T04:15:47;8.43;;;5.05;;
75289;SDS011;63883;48.996;20.804;2023-08-06T04:18:13;10.68;;;4.93;;
75289;SDS011;63883;48.996;20.804;2023-08-06T04:20:43;9.77;;;4.97;;
75289;SDS011;63883;48.996;20.804;2023-08-06T04:23:10;11.70;;;4.72;;
75289;SDS011;63883;48.996;20.804;2023-08-06T04:25:36;8.45;;;4.80;;
75289;SDS011;63883;48.996;20.804;2023-08-06T04:28:02;8.15;;;4.68;;
75289;SDS011;63883;48.996;20.804;2023-08-06T04:30:27;9.20;;;5.00;;
75289;SDS011;63883;48.996;20.804;2023-08-06T04:32:53;7.95;;;4.95;;
75289;SDS011;63883;48.996;20.804;2023-08-06T04:35:19;9.00;;;4.90;;
75289;SDS011;63883;48.996;20.804;2023-08-06T04:37:44;7.60;;;4.90;;
75289;SDS011;63883;48.996;20.804;2023-08-06T04:40:10;9.32;;;4.70;;
75289;SDS011;63883;48.996;20.804;2023-08-06T04:42:36;7.60;;;5.10;;
75289;SDS011;63883;48.996;20.804;2023-08-06T04:45:01;7.80;;;4.88;;
75289;SDS011;63883;48.996;20.804;2023-08-06T04:47:28;7.78;;;4.88;;
75289;SDS011;63883;48.996;20.804;2023-08-06T04:49:53;5.38;;;4.20;;
75289;SDS011;63883;48.996;20.804;2023-08-06T04:52:19;5.50;;;3.95;;
75289;SDS011;63883;48.996;20.804;2023-08-06T04:54:45;6.57;;;4.00;;
75289;SDS011;63883;48.996;20.804;2023-08-06T04:57:11;5.22;;;3.63;;
75289;SDS011;63883;48.996;20.804;2023-08-06T04:59:36;5.95;;;3.20;;
75289;SDS011;63883;48.996;20.804;2023-08-06T05:02:02;5.85;;;4.10;;
75289;SDS011;63883;48.996;20.804;2023-08-06T05:04:28;5.60;;;3.08;;
75289;SDS011;63883;48.996;20.804;2023-08-06T05:06:54;4.28;;;3.20;;
75289;SDS011;63883;48.996;20.804;2023-08-06T05:09:19;5.72;;;3.97;;
75289;SDS011;63883;48.996;20.804;2023-08-06T05:11:46;4.13;;;2.72;;
75289;SDS011;63883;48.996;20.804;2023-08-06T05:14:12;3.65;;;2.88;;
75289;SDS011;63883;48.996;20.804;2023-08-06T05:16:38;4.07;;;3.00;;
75289;SDS011;63883;48.996;20.804;2023-08-06T05:19:04;4.50;;;2.97;;
75289;SDS011;63883;48.996;20.804;2023-08-06T05:21:30;3.47;;;2.65;;
75289;SDS011;63883;48.996;20.804;2023-08-06T05:23:55;4.90;;;2.90;;
75289;SDS011;63883;48.996;20.804;2023-08-06T05:26:21;4.60;;;3.20;;
75289;SDS011;63883;48.996;20.804;2023-08-06T05:28:46;6.10;;;3.10;;
75289;SDS011;63883;48.996;20.804;2023-08-06T05:31:12;3.65;;;2.90;;
75289;SDS011;63883;48.996;20.804;2023-08-06T05:33:38;4.00;;;3.13;;
75289;SDS011;63883;48.996;20.804;2023-08-06T05:36:04;4.25;;;3.30;;
75289;SDS011;63883;48.996;20.804;2023-08-06T05:38:30;5.10;;;3.10;;
75289;SDS011;63883;48.996;20.804;2023-08-06T05:40:56;3.42;;;2.72;;
75289;SDS011;63883;48.996;20.804;2023-08-06T05:43:22;5.32;;;3.38;;
75289;SDS011;63883;48.996;20.804;2023-08-06T05:45:51;3.80;;;3.20;;
75289;SDS011;63883;48.996;20.804;2023-08-06T05:48:16;3.10;;;2.65;;
75289;SDS011;63883;48.996;20.804;2023-08-06T05:50:42;4.00;;;2.95;;
75289;SDS011;63883;48.996;20.804;2023-08-06T05:53:08;4.30;;;3.20;;
75289;SDS011;63883;48.996;20.804;2023-08-06T05:55:34;4.85;;;3.03;;
75289;SDS011;63883;48.996;20.804;2023-08-06T05:58:00;17.35;;;9.98;;
75289;SDS011;63883;48.996;20.804;2023-08-06T06:00:26;14.63;;;8.02;;
75289;SDS011;63883;48.996;20.804;2023-08-06T06:02:52;8.98;;;5.78;;
75289;SDS011;63883;48.996;20.804;2023-08-06T06:05:18;5.95;;;3.60;;
75289;SDS011;63883;48.996;20.804;2023-08-06T06:07:43;37.22;;;16.85;;
75289;SDS011;63883;48.996;20.804;2023-08-06T06:10:09;12.35;;;7.00;;
75289;SDS011;63883;48.996;20.804;2023-08-06T06:12:35;4.65;;;2.83;;
75289;SDS011;63883;48.996;20.804;2023-08-06T06:15:00;1.75;;;1.65;;
75289;SDS011;63883;48.996;20.804;2023-08-06T06:17:27;2.00;;;1.55;;
75289;SDS011;63883;48.996;20.804;2023-08-06T06:19:53;1.88;;;1.45;;
75289;SDS011;63883;48.996;20.804;2023-08-06T06:22:18;2.00;;;1.70;;
75289;SDS011;63883;48.996;20.804;2023-08-06T06:24:44;2.63;;;1.60;;
75289;SDS011;63883;48.996;20.804;2023-08-06T06:27:10;2.78;;;1.60;;
75289;SDS011;63883;48.996;20.804;2023-08-06T06:29:35;2.53;;;1.60;;
75289;SDS011;63883;48.996;20.804;2023-08-06T06:32:01;2.20;;;1.63;;
75289;SDS011;63883;48.996;20.804;2023-08-06T06:34:27;3.97;;;1.80;;
75289;SDS011;63883;48.996;20.804;2023-08-06T06:36:52;1.70;;;1.60;;
75289;SDS011;63883;48.996;20.804;2023-08-06T06:39:18;1.60;;;1.50;;
75289;SDS011;63883;48.996;20.804;2023-08-06T06:41:44;1.70;;;1.60;;
75289;SDS011;63883;48.996;20.804;2023-08-06T06:44:10;2.00;;;1.80;;
75289;SDS011;63883;48.996;20.804;2023-08-06T06:46:35;2.30;;;1.70;;
75289;SDS011;63883;48.996;20.804;2023-08-06T06:49:01;1.55;;;1.45;;
75289;SDS011;63883;48.996;20.804;2023-08-06T06:51:27;1.70;;;1.60;;
75289;SDS011;63883;48.996;20.804;2023-08-06T06:53:52;1.90;;;1.60;;
75289;SDS011;63883;48.996;20.804;2023-08-06T06:56:18;1.55;;;1.45;;
75289;SDS011;63883;48.996;20.804;2023-08-06T06:58:44;1.77;;;1.60;;
75289;SDS011;63883;48.996;20.804;2023-08-06T07:01:09;1.80;;;1.20;;
75289;SDS011;63883;48.996;20.804;2023-08-06T07:03:37;1.50;;;1.40;;
75289;SDS011;63883;48.996;20.804;2023-08-06T07:06:03;1.40;;;1.30;;
75289;SDS011;63883;48.996;20.804;2023-08-06T07:08:29;1.40;;;1.30;;
75289;SDS011;63883;48.996;20.804;2023-08-06T07:11:01;1.40;;;1.30;;
75289;SDS011;63883;48.996;20.804;2023-08-06T07:13:28;2.05;;;1.27;;
75289;SDS011;63883;48.996;20.804;2023-08-06T07:15:54;1.23;;;1.20;;
75289;SDS011;63883;48.996;20.804;2023-08-06T07:18:20;1.10;;;1.10;;
75289;SDS011;63883;48.996;20.804;2023-08-06T07:20:52;1.10;;;1.10;;
75289;SDS011;63883;48.996;20.804;2023-08-06T07:23:20;1.55;;;1.45;;
75289;SDS011;63883;48.996;20.804;2023-08-06T07:25:47;1.00;;;1.00;;
75289;SDS011;63883;48.996;20.804;2023-08-06T07:28:13;1.00;;;1.00;;
75289;SDS011;63883;48.996;20.804;2023-08-06T07:30:39;0.70;;;0.70;;
75289;SDS011;63883;48.996;20.804;2023-08-06T07:33:06;0.85;;;0.85;;
75289;SDS011;63883;48.996;20.804;2023-08-06T07:35:32;0.88;;;0.88;;
75289;SDS011;63883;48.996;20.804;2023-08-06T07:37:58;0.70;;;0.70;;
75289;SDS011;63883;48.996;20.804;2023-08-06T07:40:24;1.17;;;0.90;;
75289;SDS011;63883;48.996;20.804;2023-08-06T07:42:49;1.23;;;0.85;;
75289;SDS011;63883;48.996;20.804;2023-08-06T07:45:15;0.73;;;0.73;;
75289;SDS011;63883;48.996;20.804;2023-08-06T07:47:41;0.60;;;0.60;;
75289;SDS011;63883;48.996;20.804;2023-08-06T07:50:08;0.68;;;0.68;;
75289;SDS011;63883;48.996;20.804;2023-08-06T07:52:34;0.63;;;0.63;;
75289;SDS011;63883;48.996;20.804;2023-08-06T07:55:00;0.80;;;0.80;;
75289;SDS011;63883;48.996;20.804;2023-08-06T07:57:27;1.02;;;0.70;;
75289;SDS011;63883;48.996;20.804;2023-08-06T07:59:53;0.60;;;0.60;;
75289;SDS011;63883;48.996;20.804;2023-08-06T08:02:19;0.60;;;0.60;;
75289;SDS011;63883;48.996;20.804;2023-08-06T08:04:45;0.68;;;0.68;;
75289;SDS011;63883;48.996;20.804;2023-08-06T08:09:38;0.82;;;0.75;;
75289;SDS011;63883;48.996;20.804;2023-08-06T08:12:04;1.08;;;0.70;;
75289;SDS011;63883;48.996;20.804;2023-08-06T08:14:30;0.70;;;0.70;;
75289;SDS011;63883;48.996;20.804;2023-08-06T08:17:01;0.70;;;0.70;;
75289;SDS011;63883;48.996;20.804;2023-08-06T08:19:28;0.70;;;0.70;;
75289;SDS011;63883;48.996;20.804;2023-08-06T08:21:54;0.70;;;0.70;;
75289;SDS011;63883;48.996;20.804;2023-08-06T08:24:19;0.80;;;0.80;;
75289;SDS011;63883;48.996;20.804;2023-08-06T08:26:52;0.80;;;0.80;;
75289;SDS011;63883;48.996;20.804;2023-08-06T08:29:21;0.70;;;0.70;;
75289;SDS011;63883;48.996;20.804;2023-08-06T08:31:47;0.70;;;0.70;;
75289;SDS011;63883;48.996;20.804;2023-08-06T08:34:18;0.70;;;0.70;;
75289;SDS011;63883;48.996;20.804;2023-08-06T08:36:44;0.80;;;0.80;;
75289;SDS011;63883;48.996;20.804;2023-08-06T08:39:15;0.55;;;0.55;;
75289;SDS011;63883;48.996;20.804;2023-08-06T08:41:41;1.25;;;0.70;;
75289;SDS011;63883;48.996;20.804;2023-08-06T08:44:08;0.70;;;0.70;;
75289;SDS011;63883;48.996;20.804;2023-08-06T08:46:38;0.60;;;0.60;;
75289;SDS011;63883;48.996;20.804;2023-08-06T08:49:05;0.60;;;0.60;;
75289;SDS011;63883;48.996;20.804;2023-08-06T08:51:32;0.60;;;0.60;;
75289;SDS011;63883;48.996;20.804;2023-08-06T08:53:59;0.98;;;0.60;;
75289;SDS011;63883;48.996;20.804;2023-08-06T08:56:28;0.60;;;0.60;;
75289;SDS011;63883;48.996;20.804;2023-08-06T08:58:53;0.95;;;0.63;;
75289;SDS011;63883;48.996;20.804;2023-08-06T09:01:23;0.70;;;0.70;;
75289;SDS011;63883;48.996;20.804;2023-08-06T09:03:50;0.70;;;0.70;;
75289;SDS011;63883;48.996;20.804;2023-08-06T09:06:17;0.63;;;0.60;;
75289;SDS011;63883;48.996;20.804;2023-08-06T09:08:50;0.75;;;0.50;;
75289;SDS011;63883;48.996;20.804;2023-08-06T09:11:22;0.60;;;0.60;;
75289;SDS011;63883;48.996;20.804;2023-08-06T09:13:48;0.80;;;0.80;;
75289;SDS011;63883;48.996;20.804;2023-08-06T09:16:14;0.70;;;0.70;;
75289;SDS011;63883;48.996;20.804;2023-08-06T09:18:40;0.70;;;0.70;;
75289;SDS011;63883;48.996;20.804;2023-08-06T09:21:06;0.70;;;0.70;;
75289;SDS011;63883;48.996;20.804;2023-08-06T09:23:39;0.70;;;0.70;;
75289;SDS011;63883;48.996;20.804;2023-08-06T09:26:05;0.57;;;0.50;;
75289;SDS011;63883;48.996;20.804;2023-08-06T09:28:36;0.70;;;0.70;;
75289;SDS011;63883;48.996;20.804;2023-08-06T09:31:08;0.80;;;0.80;;
75289;SDS011;63883;48.996;20.804;2023-08-06T09:33:35;0.63;;;0.63;;
75289;SDS011;63883;48.996;20.804;2023-08-06T09:36:10;0.70;;;0.70;;
75289;SDS011;63883;48.996;20.804;2023-08-06T09:38:39;0.60;;;0.60;;
75289;SDS011;63883;48.996;20.804;2023-08-06T09:41:06;1.10;;;1.10;;
75289;SDS011;63883;48.996;20.804;2023-08-06T09:43:42;0.60;;;0.60;;
75289;SDS011;63883;48.996;20.804;2023-08-06T09:46:12;0.50;;;0.50;;
75289;SDS011;63883;48.996;20.804;2023-08-06T09:48:38;0.60;;;0.60;;
75289;SDS011;63883;48.996;20.804;2023-08-06T09:51:07;0.63;;;0.60;;
75289;SDS011;63883;48.996;20.804;2023-08-06T09:53:33;0.60;;;0.60;;
75289;SDS011;63883;48.996;20.804;2023-08-06T09:56:01;0.50;;;0.50;;
75289;SDS011;63883;48.996;20.804;2023-08-06T09:58:26;0.70;;;0.70;;
75289;SDS011;63883;48.996;20.804;2023-08-06T10:00:52;1.45;;;1.35;;
75289;SDS011;63883;48.996;20.804;2023-08-06T10:03:18;0.70;;;0.70;;
75289;SDS011;63883;48.996;20.804;2023-08-06T10:05:45;0.77;;;0.77;;
75289;SDS011;63883;48.996;20.804;2023-08-06T10:08:11;1.73;;;0.80;;
75289;SDS011;63883;48.996;20.804;2023-08-06T10:10:37;0.73;;;0.73;;
75289;SDS011;63883;48.996;20.804;2023-08-06T10:13:03;2.00;;;1.25;;
75289;SDS011;63883;48.996;20.804;2023-08-06T10:15:32;0.88;;;0.88;;
75289;SDS011;63883;48.996;20.804;2023-08-06T10:17:58;0.80;;;0.80;;
75289;SDS011;63883;48.996;20.804;2023-08-06T10:22:59;1.30;;;0.80;;
75289;SDS011;63883;48.996;20.804;2023-08-06T10:25:26;0.75;;;0.75;;
75289;SDS011;63883;48.996;20.804;2023-08-06T10:27:56;1.05;;;0.90;;
75289;SDS011;63883;48.996;20.804;2023-08-06T10:30:28;0.80;;;0.80;;
75289;SDS011;63883;48.996;20.804;2023-08-06T10:32:56;0.90;;;0.90;;
75289;SDS011;63883;48.996;20.804;2023-08-06T10:35:29;0.80;;;0.80;;
75289;SDS011;63883;48.996;20.804;2023-08-06T10:38:05;0.90;;;0.90;;
75289;SDS011;63883;48.996;20.804;2023-08-06T10:40:33;0.82;;;0.82;;
75289;SDS011;63883;48.996;20.804;2023-08-06T10:42:59;1.30;;;1.30;;
75289;SDS011;63883;48.996;20.804;2023-08-06T10:45:26;0.93;;;0.93;;
75289;SDS011;63883;48.996;20.804;2023-08-06T10:47:54;0.70;;;0.70;;
75289;SDS011;63883;48.996;20.804;2023-08-06T10:50:23;0.75;;;0.75;;
75289;SDS011;63883;48.996;20.804;2023-08-06T10:52:50;0.80;;;0.80;;
75289;SDS011;63883;48.996;20.804;2023-08-06T10:55:26;0.68;;;0.68;;
75289;SDS011;63883;48.996;20.804;2023-08-06T10:57:53;0.70;;;0.70;;
75289;SDS011;63883;48.996;20.804;2023-08-06T11:00:20;0.60;;;0.60;;
75289;SDS011;63883;48.996;20.804;2023-08-06T11:02:48;0.68;;;0.68;;
75289;SDS011;63883;48.996;20.804;2023-08-06T11:05:14;0.80;;;0.80;;
75289;SDS011;63883;48.996;20.804;2023-08-06T11:07:40;0.70;;;0.70;;
75289;SDS011;63883;48.996;20.804;2023-08-06T11:10:08;0.77;;;0.77;;
75289;SDS011;63883;48.996;20.804;2023-08-06T11:12:35;0.70;;;0.70;;
75289;SDS011;63883;48.996;20.804;2023-08-06T11:15:02;0.70;;;0.70;;
75289;SDS011;63883;48.996;20.804;2023-08-06T11:17:29;0.85;;;0.80;;
75289;SDS011;63883;48.996;20.804;2023-08-06T11:19:55;1.40;;;0.80;;
75289;SDS011;63883;48.996;20.804;2023-08-06T11:22:24;0.60;;;0.60;;
75289;SDS011;63883;48.996;20.804;2023-08-06T11:24:49;0.77;;;0.77;;
75289;SDS011;63883;48.996;20.804;2023-08-06T11:27:16;0.52;;;0.52;;
75289;SDS011;63883;48.996;20.804;2023-08-06T11:29:43;0.98;;;0.68;;
75289;SDS011;63883;48.996;20.804;2023-08-06T11:32:09;0.60;;;0.60;;
75289;SDS011;63883;48.996;20.804;2023-08-06T11:34:36;0.50;;;0.50;;
75289;SDS011;63883;48.996;20.804;2023-08-06T11:37:02;0.40;;;0.40;;
75289;SDS011;63883;48.996;20.804;2023-08-06T11:39:34;0.50;;;0.47;;
75289;SDS011;63883;48.996;20.804;2023-08-06T11:42:01;0.40;;;0.40;;
75289;SDS011;63883;48.996;20.804;2023-08-06T11:44:32;0.32;;;0.32;;
75289;SDS011;63883;48.996;20.804;2023-08-06T11:47:02;0.47;;;0.40;;
75289;SDS011;63883;48.996;20.804;2023-08-06T11:57:08;0.22;;;0.22;;
75289;SDS011;63883;48.996;20.804;2023-08-06T11:59:34;0.30;;;0.30;;
75289;SDS011;63883;48.996;20.804;2023-08-06T12:02:00;0.20;;;0.20;;
75289;SDS011;63883;48.996;20.804;2023-08-06T12:04:27;0.30;;;0.30;;
75289;SDS011;63883;48.996;20.804;2023-08-06T12:06:52;0.68;;;0.40;;
75289;SDS011;63883;48.996;20.804;2023-08-06T12:09:18;0.20;;;0.20;;
75289;SDS011;63883;48.996;20.804;2023-08-06T12:11:44;0.28;;;0.28;;
75289;SDS011;63883;48.996;20.804;2023-08-06T12:14:10;0.40;;;0.40;;
75289;SDS011;63883;48.996;20.804;2023-08-06T12:16:35;0.70;;;0.70;;
75289;SDS011;63883;48.996;20.804;2023-08-06T12:19:01;0.30;;;0.30;;
75289;SDS011;63883;48.996;20.804;2023-08-06T12:21:27;0.45;;;0.45;;
75289;SDS011;63883;48.996;20.804;2023-08-06T12:23:52;0.20;;;0.20;;
75289;SDS011;63883;48.996;20.804;2023-08-06T12:26:18;0.30;;;0.30;;
75289;SDS011;63883;48.996;20.804;2023-08-06T12:28:44;0.38;;;0.38;;
75289;SDS011;63883;48.996;20.804;2023-08-06T12:31:09;0.30;;;0.30;;
75289;SDS011;63883;48.996;20.804;2023-08-06T12:33:35;0.43;;;0.43;;
75289;SDS011;63883;48.996;20.804;2023-08-06T12:36:01;0.50;;;0.50;;
75289;SDS011;63883;48.996;20.804;2023-08-06T12:38:26;0.50;;;0.50;;
75289;SDS011;63883;48.996;20.804;2023-08-06T12:40:52;1.85;;;0.70;;
75289;SDS011;63883;48.996;20.804;2023-08-06T12:43:18;0.50;;;0.50;;
75289;SDS011;63883;48.996;20.804;2023-08-06T12:45:43;0.85;;;0.50;;
75289;SDS011;63883;48.996;20.804;2023-08-06T12:48:09;0.50;;;0.50;;
75289;SDS011;63883;48.996;20.804;2023-08-06T12:50:35;0.50;;;0.50;;
75289;SDS011;63883;48.996;20.804;2023-08-06T12:53:01;0.63;;;0.63;;
75289;SDS011;63883;48.996;20.804;2023-08-06T12:55:27;0.43;;;0.43;;
75289;SDS011;63883;48.996;20.804;2023-08-06T12:57:53;0.60;;;0.60;;
75289;SDS011;63883;48.996;20.804;2023-08-06T13:00:18;0.52;;;0.52;;
75289;SDS011;63883;48.996;20.804;2023-08-06T13:02:44;0.88;;;0.60;;
75289;SDS011;63883;48.996;20.804;2023-08-06T13:05:10;0.30;;;0.30;;
75289;SDS011;63883;48.996;20.804;2023-08-06T13:07:36;0.85;;;0.50;;
75289;SDS011;63883;48.996;20.804;2023-08-06T13:10:01;0.40;;;0.40;;
75289;SDS011;63883;48.996;20.804;2023-08-06T13:12:27;0.52;;;0.52;;
75289;SDS011;63883;48.996;20.804;2023-08-06T13:14:52;0.50;;;0.50;;
75289;SDS011;63883;48.996;20.804;2023-08-06T13:17:18;0.50;;;0.50;;
75289;SDS011;63883;48.996;20.804;2023-08-06T13:19:44;0.60;;;0.60;;
75289;SDS011;63883;48.996;20.804;2023-08-06T13:22:10;0.55;;;0.55;;
75289;SDS011;63883;48.996;20.804;2023-08-06T13:24:35;0.70;;;0.70;;
75289;SDS011;63883;48.996;20.804;2023-08-06T13:27:01;0.50;;;0.50;;
75289;SDS011;63883;48.996;20.804;2023-08-06T13:29:28;0.50;;;0.50;;
75289;SDS011;63883;48.996;20.804;2023-08-06T13:31:54;0.60;;;0.60;;
75289;SDS011;63883;48.996;20.804;2023-08-06T13:34:19;0.82;;;0.50;;
75289;SDS011;63883;48.996;20.804;2023-08-06T13:36:45;0.57;;;0.57;;
75289;SDS011;63883;48.996;20.804;2023-08-06T13:39:11;0.60;;;0.60;;
75289;SDS011;63883;48.996;20.804;2023-08-06T13:41:37;0.52;;;0.52;;
75289;SDS011;63883;48.996;20.804;2023-08-06T13:44:04;0.60;;;0.60;;
75289;SDS011;63883;48.996;20.804;2023-08-06T13:46:30;0.60;;;0.60;;
75289;SDS011;63883;48.996;20.804;2023-08-06T13:48:55;0.60;;;0.60;;
75289;SDS011;63883;48.996;20.804;2023-08-06T13:51:21;0.70;;;0.70;;
75289;SDS011;63883;48.996;20.804;2023-08-06T13:53:47;0.93;;;0.70;;
75289;SDS011;63883;48.996;20.804;2023-08-06T13:56:12;0.70;;;0.70;;
75289;SDS011;63883;48.996;20.804;2023-08-06T13:58:42;0.63;;;0.63;;
75289;SDS011;63883;48.996;20.804;2023-08-06T14:01:12;0.75;;;0.75;;
75289;SDS011;63883;48.996;20.804;2023-08-06T14:03:38;0.90;;;0.90;;
75289;SDS011;63883;48.996;20.804;2023-08-06T14:06:04;2.10;;;1.00;;
75289;SDS011;63883;48.996;20.804;2023-08-06T14:08:29;1.25;;;1.08;;
75289;SDS011;63883;48.996;20.804;2023-08-06T14:10:55;1.00;;;1.00;;
75289;SDS011;63883;48.996;20.804;2023-08-06T14:13:21;1.10;;;1.10;;
75289;SDS011;63883;48.996;20.804;2023-08-06T14:15:47;1.00;;;1.00;;
75289;SDS011;63883;48.996;20.804;2023-08-06T14:18:14;1.00;;;1.00;;
75289;SDS011;63883;48.996;20.804;2023-08-06T14:20:43;1.13;;;1.13;;
75289;SDS011;63883;48.996;20.804;2023-08-06T14:23:09;1.27;;;1.10;;
75289;SDS011;63883;48.996;20.804;2023-08-06T14:25:35;1.10;;;1.10;;
75289;SDS011;63883;48.996;20.804;2023-08-06T14:28:03;1.00;;;1.00;;
75289;SDS011;63883;48.996;20.804;2023-08-06T14:30:29;1.00;;;1.00;;
75289;SDS011;63883;48.996;20.804;2023-08-06T14:32:55;1.08;;;0.98;;
75289;SDS011;63883;48.996;20.804;2023-08-06T14:35:20;1.10;;;1.10;;
75289;SDS011;63883;48.996;20.804;2023-08-06T14:37:47;1.10;;;1.10;;
75289;SDS011;63883;48.996;20.804;2023-08-06T14:40:13;1.55;;;1.45;;
75289;SDS011;63883;48.996;20.804;2023-08-06T14:42:38;1.52;;;1.20;;
75289;SDS011;63883;48.996;20.804;2023-08-06T14:45:05;1.42;;;1.20;;
75289;SDS011;63883;48.996;20.804;2023-08-06T14:47:31;1.30;;;1.20;;